Time;durP1;ratioP1;P1;durP2;ratioP2;P2;SDS_P1;SDS_P2;PMS_P1;PMS_P2;Temp;Humidity;BMP_temperature;BMP_pressure;BME280_temperature;BME280_humidity;BME280_pressure;Samples;Min_cycle;Max_cycle;Signal;HPM_P1;HPM_P2
2022/05/27 00:00:17;;;;;;;2.08;1.20;;;;;;;17.65;61.58;100363.66;5036875;28;20037;-78
2022/05/27 00:02:50;;;;;;;1.75;1.50;;;;;;;17.67;61.49;100370.47;5053261;28;20531;-78
2022/05/27 00:05:19;;;;;;;5.75;1.30;;;;;;;17.65;61.34;100366.56;5053363;28;20025;-77
2022/05/27 00:07:45;;;;;;;2.70;1.30;;;;;;;17.61;61.77;100372.56;5053250;28;20025;-77
2022/05/27 00:10:14;;;;;;;3.03;1.48;;;;;;;17.58;61.67;100367.84;5035289;28;20041;-77
2022/05/27 00:12:40;;;;;;;2.88;1.30;;;;;;;17.56;61.96;100349.53;5018803;28;20068;-76
2022/05/27 00:15:07;;;;;;;1.63;1.38;;;;;;;17.55;61.67;100357.38;5052987;28;20028;-76
2022/05/27 00:17:33;;;;;;;1.33;1.20;;;;;;;17.58;61.75;100347.66;5018617;28;20043;-77
2022/05/27 00:20:07;;;;;;;4.55;1.48;;;;;;;17.56;61.62;100349.53;5035562;28;20041;-77
2022/05/27 00:22:34;;;;;;;2.67;0.90;;;;;;;17.53;62.13;100341.91;5053221;28;20040;-77
2022/05/27 00:24:59;;;;;;;1.08;1.00;;;;;;;17.48;62.29;100339.84;5036536;28;20359;-77
2022/05/27 00:27:25;;;;;;;1.65;1.17;;;;;;;17.48;61.91;100343.50;5056572;28;20481;-77
2022/05/27 00:29:50;;;;;;;3.28;1.20;;;;;;;17.49;61.89;100327.78;5039024;28;20477;-77
2022/05/27 00:32:18;;;;;;;2.83;1.10;;;;;;;17.48;62.09;100329.09;5056402;28;20462;-77
2022/05/27 00:34:44;;;;;;;2.30;1.20;;;;;;;17.51;61.79;100319.41;5056224;28;20452;-76
2022/05/27 00:37:10;;;;;;;1.00;0.90;;;;;;;17.61;61.24;100320.72;5056572;28;20108;-76
2022/05/27 00:39:38;;;;;;;1.38;1.15;;;;;;;17.60;60.95;100321.25;5038545;28;20108;-77
2022/05/27 00:42:08;;;;;;;2.05;1.10;;;;;;;17.63;61.03;100323.84;5022055;28;20044;-78
2022/05/27 00:44:34;;;;;;;0.95;0.90;;;;;;;17.51;61.01;100315.75;5056294;28;20060;-77
2022/05/27 00:47:05;;;;;;;1.48;1.20;;;;;;;17.62;61.38;100318.63;5056074;28;20060;-79
2022/05/27 00:49:32;;;;;;;1.33;1.20;;;;;;;17.62;60.89;100312.84;5038642;28;20048;-77
2022/05/27 00:52:11;;;;;;;1.90;1.00;;;;;;;17.60;60.17;100321.25;5038334;28;20075;-77
2022/05/27 00:54:37;;;;;;;1.10;1.00;;;;;;;17.65;60.39;100318.38;5038211;28;20067;-77
2022/05/27 00:57:25;;;;;;;1.73;1.05;;;;;;;17.67;60.53;100312.84;5038062;28;20016;-77
2022/05/27 01:00:00;;;;;;;2.42;1.85;;;;;;;17.72;60.55;100308.38;5038015;28;20025;-76
2022/05/27 01:02:27;;;;;;;2.53;1.27;;;;;;;17.68;60.04;100310.75;5038629;28;20025;-76
2022/05/27 01:04:54;;;;;;;1.88;1.15;;;;;;;17.65;60.05;100311.81;5038089;28;20021;-78
2022/05/27 01:07:22;;;;;;;1.63;1.30;;;;;;;17.68;60.01;100311.53;5038149;28;20478;-77
2022/05/27 01:09:49;;;;;;;1.20;1.10;;;;;;;17.66;59.91;100301.88;5021687;28;20043;-77
2022/05/27 01:12:39;;;;;;;1.10;0.93;;;;;;;17.63;60.12;100300.81;5021617;28;20524;-78
2022/05/27 01:15:28;;;;;;;3.80;1.08;;;;;;;17.72;59.76;100298.94;5037705;28;20033;-78
2022/05/27 01:18:20;;;;;;;1.00;0.90;;;;;;;17.66;59.81;100296.09;5055365;28;20036;-77
2022/05/27 01:21:00;;;;;;;3.15;1.10;;;;;;;17.65;59.71;100295.31;5037917;28;20028;-78
2022/05/27 01:23:57;;;;;;;1.67;0.90;;;;;;;17.67;60.53;100286.91;5039727;28;20028;-77
2022/05/27 01:26:45;;;;;;;2.95;1.13;;;;;;;17.61;59.86;100291.91;5038604;28;20459;-77
2022/05/27 01:29:33;;;;;;;1.20;0.93;;;;;;;17.60;60.09;100281.72;5037914;28;20497;-78
2022/05/27 01:32:02;;;;;;;2.22;1.67;;;;;;;17.59;60.04;100283.03;5026207;28;20044;-77
2022/05/27 01:34:59;;;;;;;1.63;1.05;;;;;;;17.64;60.23;100272.78;5055431;28;20072;-77
2022/05/27 01:37:25;;;;;;;0.93;0.82;;;;;;;17.61;60.14;100271.72;5036758;28;20024;-78
2022/05/27 01:40:07;;;;;;;0.88;0.88;;;;;;;17.58;60.42;100275.66;5055331;28;20029;-77
2022/05/27 01:42:51;;;;;;;1.45;0.98;;;;;;;17.60;60.77;100272.28;5037355;28;20116;-76
2022/05/27 01:45:25;;;;;;;2.20;0.90;;;;;;;17.56;60.54;100274.63;5055252;28;20116;-77
2022/05/27 01:48:13;;;;;;;1.13;0.80;;;;;;;17.59;60.28;100262.06;5037390;28;20037;-77
2022/05/27 01:51:18;;;;;;;2.08;1.10;;;;;;;17.54;60.62;100255.00;5055070;28;20032;-77
2022/05/27 01:53:51;;;;;;;2.60;1.10;;;;;;;17.54;59.94;100257.09;5054886;28;20025;-77
2022/05/27 01:56:21;;;;;;;1.58;1.25;;;;;;;17.51;60.09;100253.19;5055019;28;20070;-76
2022/05/27 01:58:54;;;;;;;4.68;1.85;;;;;;;17.59;60.04;100253.44;5052945;28;20028;-77
2022/05/27 02:01:23;;;;;;;1.02;0.90;;;;;;;17.59;60.07;100244.78;5037053;28;20059;-76
2022/05/27 02:04:16;;;;;;;1.20;0.90;;;;;;;17.56;59.88;100242.94;5054612;28;20035;-77
2022/05/27 02:07:26;;;;;;;1.35;1.00;;;;;;;17.56;60.67;100240.06;5023276;28;20482;-77
2022/05/27 02:10:37;;;;;;;1.92;1.17;;;;;;;17.54;59.80;100240.59;5008462;28;20039;-77
2022/05/27 02:13:48;;;;;;;1.20;1.10;;;;;;;17.66;59.86;100232.72;4993154;28;20124;-77
2022/05/27 02:16:18;;;;;;;0.82;0.82;;;;;;;17.65;59.46;100234.03;4976513;28;20565;-76
2022/05/27 02:18:59;;;;;;;1.13;1.02;;;;;;;17.64;60.29;100226.69;5019755;28;20074;-76
2022/05/27 02:21:35;;;;;;;1.08;0.90;;;;;;;17.65;59.66;100222.50;5036648;28;20388;-76
2022/05/27 02:24:15;;;;;;;1.23;0.85;;;;;;;17.66;59.41;100215.44;5036429;28;20063;-76
2022/05/27 02:26:45;;;;;;;1.50;1.10;;;;;;;17.72;59.26;100212.50;5036381;28;20017;-77
2022/05/27 02:29:14;;;;;;;3.38;1.15;;;;;;;17.69;59.53;100215.16;5020088;28;20029;-77
2022/05/27 02:31:45;;;;;;;2.83;0.88;;;;;;;17.72;59.82;100213.28;5020087;28;20094;-77
2022/05/27 02:37:16;;;;;;;1.75;0.80;;;;;;;17.67;59.55;100217.78;5054432;28;20151;-76
2022/05/27 02:39:42;;;;;;;1.48;1.13;;;;;;;17.67;59.02;100205.47;5019993;28;20029;-77
2022/05/27 02:42:53;;;;;;;1.25;0.98;;;;;;;17.73;59.28;100206.22;5036387;28;20043;-77
2022/05/27 02:45:34;;;;;;;1.15;0.77;;;;;;;17.68;59.11;100207.81;4992579;28;20042;-77
2022/05/27 02:48:19;;;;;;;1.90;1.00;;;;;;;17.71;59.05;100203.09;5048199;28;20040;-76
2022/05/27 02:50:54;;;;;;;0.80;0.80;;;;;;;17.69;59.50;100194.97;5054210;28;20302;-76
2022/05/27 02:53:46;;;;;;;2.75;0.82;;;;;;;17.68;59.50;100175.34;5035961;28;20453;-77
2022/05/27 02:56:47;;;;;;;3.38;0.80;;;;;;;17.68;59.22;100178.22;5053798;28;20024;-77
2022/05/27 02:59:15;;;;;;;2.97;1.00;;;;;;;17.73;58.89;100174.53;5053826;28;20029;-77
2022/05/27 03:01:40;;;;;;;1.05;0.65;;;;;;;17.69;58.93;100174.03;5035806;28;20051;-77
2022/05/27 03:04:06;;;;;;;2.00;0.98;;;;;;;17.74;58.68;100169.56;5053864;28;20029;-77
2022/05/27 03:06:50;;;;;;;3.45;0.90;;;;;;;17.79;58.22;100168.72;5019620;28;20389;-76
2022/05/27 03:09:58;;;;;;;1.77;1.02;;;;;;;17.82;58.37;100165.56;5055005;28;20061;-77
2022/05/27 03:12:39;;;;;;;1.00;0.90;;;;;;;17.75;58.43;100154.63;5022147;28;20550;-76
2022/05/27 03:15:31;;;;;;;1.17;0.80;;;;;;;17.84;58.23;100160.06;5054030;28;20056;-78
2022/05/27 03:18:47;;;;;;;1.45;0.90;;;;;;;17.83;58.37;100157.72;5035727;28;20111;-76
2022/05/27 03:21:30;;;;;;;0.60;0.50;;;;;;;17.94;57.87;100160.53;5019676;28;20040;-77
2022/05/27 03:24:07;;;;;;;2.58;0.95;;;;;;;17.94;57.79;100160.53;5035552;28;20021;-77
2022/05/27 03:26:52;;;;;;;1.00;0.88;;;;;;;18.00;57.17;100153.41;5053318;28;20421;-77
2022/05/27 03:29:41;;;;;;;1.13;0.80;;;;;;;18.06;57.29;100157.00;5019621;28;20402;-76
2022/05/27 03:32:13;;;;;;;1.27;0.90;;;;;;;18.08;57.30;100157.28;5053320;28;20458;-77
2022/05/27 03:34:49;;;;;;;2.53;0.80;;;;;;;18.07;57.80;100155.72;5052908;28;20060;-77
2022/05/27 03:37:26;;;;;;;0.98;0.93;;;;;;;18.00;57.94;100150.53;5019069;28;20478;-78
2022/05/27 03:40:15;;;;;;;4.47;0.98;;;;;;;18.03;57.74;100157.31;5035544;28;20021;-77
2022/05/27 03:42:55;;;;;;;1.20;1.10;;;;;;;18.06;58.37;100150.47;5035306;28;20029;-77
2022/05/27 03:45:22;;;;;;;1.20;0.82;;;;;;;18.14;57.89;100145.72;5035564;28;20021;-77
2022/05/27 03:47:48;;;;;;;1.00;0.80;;;;;;;18.06;57.67;100154.13;5019037;28;20379;-77
2022/05/27 03:50:17;;;;;;;1.60;0.70;;;;;;;18.07;58.23;100143.38;5035451;28;20037;-77
2022/05/27 03:52:46;;;;;;;1.05;0.85;;;;;;;18.11;57.86;100147.53;5035275;28;20025;-77
2022/05/27 03:55:14;;;;;;;0.90;0.90;;;;;;;18.10;58.83;100136.56;5019417;28;20032;-78
2022/05/27 03:57:41;;;;;;;2.97;0.95;;;;;;;18.14;58.57;100142.81;5035677;28;20025;-76
2022/05/27 04:00:23;;;;;;;1.83;1.00;;;;;;;18.12;58.33;100133.91;5054933;28;20024;-77
2022/05/27 04:02:57;;;;;;;1.15;1.02;;;;;;;18.11;58.46;100138.09;5039007;28;20032;-77
2022/05/27 04:05:25;;;;;;;1.25;0.93;;;;;;;18.11;58.84;100135.22;5040567;28;20524;-78
2022/05/27 04:07:51;;;;;;;2.60;0.88;;;;;;;18.09;58.69;100144.44;5022814;28;20028;-77
2022/05/27 04:10:17;;;;;;;1.95;0.95;;;;;;;18.13;58.58;100149.91;5056443;28;20541;-77
2022/05/27 04:12:43;;;;;;;1.15;0.90;;;;;;;18.15;59.00;100143.59;5039327;28;20056;-77
2022/05/27 04:15:18;;;;;;;2.10;0.88;;;;;;;18.18;58.56;100143.31;5022206;28;20040;-78
2022/05/27 04:17:45;;;;;;;2.28;1.02;;;;;;;18.19;59.00;100132.56;5056792;28;20029;-77
2022/05/27 04:20:15;;;;;;;2.05;0.93;;;;;;;18.25;58.84;100130.41;5038926;28;20052;-78
2022/05/27 04:22:40;;;;;;;1.95;1.00;;;;;;;18.27;59.04;100136.41;5038965;28;20029;-77
2022/05/27 04:25:08;;;;;;;4.55;1.00;;;;;;;18.28;59.17;100138.78;5022433;28;20074;-77
2022/05/27 04:27:36;;;;;;;1.15;0.85;;;;;;;18.32;59.90;100135.59;5038743;28;20040;-77
2022/05/27 04:30:05;;;;;;;2.38;1.10;;;;;;;18.31;60.30;100131.91;5022541;28;20108;-77
2022/05/27 04:32:32;;;;;;;0.88;0.70;;;;;;;18.39;59.35;100130.03;5038668;28;20036;-78
2022/05/27 04:34:57;;;;;;;3.08;1.17;;;;;;;18.27;60.04;100122.00;5010870;28;20046;-77
2022/05/27 04:37:24;;;;;;;1.35;0.77;;;;;;;18.30;60.29;100110.19;4999730;28;20025;-77
2022/05/27 04:39:51;;;;;;;1.83;1.55;;;;;;;18.23;60.21;100116.53;5016708;28;20021;-77
2022/05/27 04:42:19;;;;;;;2.72;1.00;;;;;;;18.33;60.27;100112.00;5016647;28;20096;-77
2022/05/27 04:44:44;;;;;;;1.00;0.90;;;;;;;18.29;60.17;100108.63;5016896;28;20117;-77
2022/05/27 04:47:11;;;;;;;1.60;0.90;;;;;;;18.24;60.48;100111.56;5015135;28;20034;-78
2022/05/27 04:49:50;;;;;;;0.80;0.77;;;;;;;18.32;60.82;100106.75;5016223;28;20022;-78
2022/05/27 04:52:32;;;;;;;4.13;1.20;;;;;;;18.28;61.21;100117.81;5015370;28;20117;-78
2022/05/27 04:55:02;;;;;;;1.52;0.80;;;;;;;18.23;61.29;100099.22;4999217;28;20030;-78
2022/05/27 04:57:31;;;;;;;1.98;1.08;;;;;;;18.25;61.61;100101.59;4999017;28;20084;-77
2022/05/27 04:59:58;;;;;;;2.35;1.00;;;;;;;18.36;61.31;100107.22;4982506;28;20068;-78
2022/05/27 05:02:24;;;;;;;1.58;0.80;;;;;;;18.28;61.51;100092.63;5016070;28;20457;-77
2022/05/27 05:04:51;;;;;;;2.65;1.23;;;;;;;18.34;61.83;100104.13;4998656;28;20105;-77
2022/05/27 05:07:22;;;;;;;2.83;1.20;;;;;;;18.40;62.39;100101.97;5015935;28;20061;-78
2022/05/27 05:09:49;;;;;;;1.08;0.60;;;;;;;18.40;62.23;100107.75;5015336;28;20030;-78
2022/05/27 05:12:15;;;;;;;1.30;1.00;;;;;;;18.42;62.60;100107.97;5013614;28;20030;-78
2022/05/27 05:14:41;;;;;;;1.23;1.00;;;;;;;18.46;63.20;100105.56;4998255;28;20080;-77
2022/05/27 05:17:08;;;;;;;2.42;0.98;;;;;;;18.47;63.46;100107.13;4998207;28;20030;-71
2022/05/27 05:19:38;;;;;;;2.22;0.85;;;;;;;18.48;63.61;100097.94;4997838;28;20037;-74
2022/05/27 05:22:05;;;;;;;2.83;0.75;;;;;;;18.62;62.38;100092.31;5015420;28;20549;-73
2022/05/27 05:24:33;;;;;;;2.28;1.10;;;;;;;18.64;61.40;100092.59;4998100;28;20415;-73
2022/05/27 05:27:00;;;;;;;1.35;0.60;;;;;;;18.61;60.18;100094.44;4998022;28;20034;-74
2022/05/27 05:29:26;;;;;;;1.23;0.85;;;;;;;18.69;60.20;100091.75;4981307;28;20026;-73
2022/05/27 05:31:53;;;;;;;1.63;0.90;;;;;;;18.71;60.21;100074.66;5015509;28;20026;-74
2022/05/27 05:34:20;;;;;;;1.15;1.05;;;;;;;18.63;59.79;100077.38;5002451;28;20122;-73
2022/05/27 05:36:47;;;;;;;1.58;0.90;;;;;;;18.64;60.16;100081.03;5036930;28;20021;-73
2022/05/27 05:39:12;;;;;;;3.35;1.02;;;;;;;18.69;59.48;100085.97;5037324;28;20090;-73
2022/05/27 05:41:57;;;;;;;4.15;0.98;;;;;;;18.79;60.31;100079.31;5054957;28;20442;-73
2022/05/27 05:44:33;;;;;;;1.33;0.75;;;;;;;18.83;59.72;100068.22;5054569;28;20036;-73
2022/05/27 05:47:00;;;;;;;5.03;1.60;;;;;;;18.91;60.00;100077.81;5054356;28;20029;-74
2022/05/27 05:49:26;;;;;;;1.50;1.02;;;;;;;18.97;59.01;100086.44;5037219;28;20039;-73
2022/05/27 05:51:55;;;;;;;4.57;1.80;;;;;;;19.12;59.04;100078.09;5037117;28;20338;-73
2022/05/27 05:54:21;;;;;;;0.95;0.60;;;;;;;19.32;58.93;100071.78;5020297;28;20378;-73
2022/05/27 05:56:49;;;;;;;2.80;1.02;;;;;;;19.38;58.33;100063.84;5020036;28;20027;-75
2022/05/27 05:59:17;;;;;;;3.72;1.02;;;;;;;19.55;57.78;100071.50;5054402;28;20033;-73
2022/05/27 06:01:44;;;;;;;2.75;1.20;;;;;;;19.65;57.73;100067.66;5003911;28;20048;-73
2022/05/27 06:04:10;;;;;;;3.65;1.50;;;;;;;19.68;56.54;100069.47;5054672;28;20430;-73
2022/05/27 06:06:37;;;;;;;1.73;0.98;;;;;;;19.86;56.78;100064.19;5019549;28;20492;-73
2022/05/27 06:09:05;;;;;;;1.95;1.00;;;;;;;19.88;55.32;100052.88;5019849;28;20025;-73
2022/05/27 06:11:31;;;;;;;2.10;0.95;;;;;;;20.04;55.12;100069.16;5020035;28;20060;-73
2022/05/27 06:13:58;;;;;;;1.15;0.85;;;;;;;20.10;55.56;100058.28;5036806;28;20028;-73
2022/05/27 06:16:24;;;;;;;2.63;0.82;;;;;;;20.08;55.18;100046.50;5019570;28;20124;-74
2022/05/27 06:18:49;;;;;;;2.97;0.70;;;;;;;20.10;55.14;100046.69;5036250;28;20021;-72
2022/05/27 06:21:16;;;;;;;0.95;0.80;;;;;;;20.25;55.05;100062.22;5036107;28;20150;-73
2022/05/27 06:23:44;;;;;;;2.20;1.10;;;;;;;20.25;54.91;100064.31;5035796;28;20025;-73
2022/05/27 06:26:12;;;;;;;2.20;1.10;;;;;;;20.21;54.79;100064.66;5037094;28;20122;-74
2022/05/27 06:34:28;;;;;;;;;;;;;;;20.20;53.83;100056.53;5038775;28;20153;-72
2022/05/27 06:37:11;;;;;;;2.17;1.02;;;;;;;20.13;54.63;100060.84;5037329;28;20286;-71
2022/05/27 06:39:38;;;;;;;1.35;0.73;;;;;;;20.11;54.36;100056.94;5036039;28;20025;-73
2022/05/27 06:42:09;;;;;;;1.25;1.15;;;;;;;20.01;54.57;100053.69;5003066;28;20025;-73
2022/05/27 06:44:36;;;;;;;1.95;1.15;;;;;;;19.91;54.69;100063.34;5036547;28;20057;-72
2022/05/27 06:47:04;;;;;;;0.85;0.70;;;;;;;19.82;55.42;100062.41;5036042;28;20083;-72
2022/05/27 06:49:29;;;;;;;2.88;0.85;;;;;;;19.79;55.24;100063.50;5036040;28;20087;-74
2022/05/27 06:51:56;;;;;;;4.72;1.23;;;;;;;19.80;56.08;100062.19;5035648;28;20482;-72
2022/05/27 06:54:22;;;;;;;1.58;1.23;;;;;;;19.72;55.89;100064.16;5053722;28;20048;-73
2022/05/27 06:56:52;;;;;;;8.80;1.48;;;;;;;19.75;55.96;100053.59;5053725;28;20027;-73
2022/05/27 06:59:22;;;;;;;1.50;1.40;;;;;;;19.72;55.95;100049.69;5053544;28;20481;-74
2022/05/27 07:01:48;;;;;;;2.50;1.30;;;;;;;19.64;55.99;100054.53;5053269;28;20403;-73
2022/05/27 07:04:34;;;;;;;1.48;1.23;;;;;;;19.64;56.43;100062.44;5053500;28;20112;-72
2022/05/27 07:06:59;;;;;;;5.00;1.20;;;;;;;19.58;56.74;100053.09;5053094;28;20025;-73
2022/05/27 07:09:31;;;;;;;2.63;1.00;;;;;;;19.59;57.18;100060.41;5035632;28;20028;-74
2022/05/27 07:11:59;;;;;;;3.80;2.45;;;;;;;19.57;57.58;100069.63;5053223;28;20032;-73
2022/05/27 07:14:26;;;;;;;2.22;1.27;;;;;;;19.48;57.39;100070.03;5053338;28;20051;-75
2022/05/27 07:16:51;;;;;;;1.85;1.20;;;;;;;19.46;58.22;100064.00;5053011;28;20024;-74
2022/05/27 07:19:19;;;;;;;3.67;1.40;;;;;;;19.38;58.59;100063.84;5053324;28;20020;-73
2022/05/27 07:21:47;;;;;;;4.30;1.80;;;;;;;19.43;59.44;100067.97;5053274;28;20462;-73
2022/05/27 07:24:16;;;;;;;2.63;1.67;;;;;;;19.31;59.85;100072.34;5018819;28;20033;-73
2022/05/27 07:26:46;;;;;;;3.65;1.20;;;;;;;19.24;61.08;100070.09;5035003;28;20017;-73
2022/05/27 07:29:13;;;;;;;2.80;1.20;;;;;;;19.25;60.55;100071.63;5035415;28;20033;-74
2022/05/27 07:31:42;;;;;;;2.50;1.15;;;;;;;19.16;60.93;100077.78;5018784;28;20033;-74
2022/05/27 07:34:09;;;;;;;3.20;1.48;;;;;;;19.08;61.82;100079.75;5034512;28;20032;-72
2022/05/27 07:36:34;;;;;;;2.75;1.48;;;;;;;19.04;61.89;100080.06;5035010;28;20052;-73
2022/05/27 07:39:02;;;;;;;5.00;2.65;;;;;;;19.09;61.85;100089.97;5018529;28;20029;-74
2022/05/27 07:41:29;;;;;;;2.58;2.30;;;;;;;19.09;62.82;100084.97;5034957;28;20044;-73
2022/05/27 07:43:55;;;;;;;3.50;1.85;;;;;;;19.03;62.83;100081.38;5018534;28;20094;-73
2022/05/27 07:46:23;;;;;;;4.80;2.00;;;;;;;18.95;63.61;100101.41;5052655;28;20068;-73
2022/05/27 07:48:48;;;;;;;2.97;1.83;;;;;;;18.85;64.49;100102.31;5018241;28;20037;-73
2022/05/27 07:51:14;;;;;;;4.68;1.73;;;;;;;18.80;64.77;100106.81;5018526;28;20484;-73
2022/05/27 07:53:54;;;;;;;3.25;1.70;;;;;;;18.72;67.12;100107.97;5052493;28;20470;-74
2022/05/27 07:56:20;;;;;;;2.17;1.83;;;;;;;18.45;67.68;100081.69;5018317;28;20023;-72
2022/05/27 07:58:48;;;;;;;1.85;1.70;;;;;;;18.46;69.44;100102.69;5052552;28;20021;-73
2022/05/27 08:01:14;;;;;;;2.95;1.90;;;;;;;18.39;71.47;100109.84;5052554;28;20029;-72
2022/05/27 08:03:54;;;;;;;3.22;2.00;;;;;;;18.31;75.87;100123.28;5018163;28;20071;-74
2022/05/27 08:06:19;;;;;;;4.53;3.42;;;;;;;18.14;76.92;100105.34;5034529;28;20017;-74
2022/05/27 08:08:46;;;;;;;6.50;2.65;;;;;;;18.05;79.21;100122.97;5053006;28;20040;-74
2022/05/27 08:11:13;;;;;;;3.60;2.10;;;;;;;17.78;81.25;100121.84;5034702;28;20466;-73
2022/05/27 08:13:40;;;;;;;2.63;2.25;;;;;;;17.67;83.21;100122.69;5034885;28;20478;-73
2022/05/27 08:16:08;;;;;;;3.63;2.25;;;;;;;17.61;83.65;100124.81;5053292;28;20024;-72
2022/05/27 08:18:48;;;;;;;4.85;3.30;;;;;;;17.55;84.09;100123.28;5052867;28;20048;-72
2022/05/27 08:21:16;;;;;;;3.30;2.72;;;;;;;17.52;84.04;100128.00;5053845;28;20124;-76
2022/05/27 08:23:42;;;;;;;3.88;1.88;;;;;;;17.40;85.26;100131.47;5053066;28;20414;-77
2022/05/27 08:26:08;;;;;;;4.15;2.60;;;;;;;17.38;85.60;100137.75;5035431;28;20029;-77
2022/05/27 08:28:34;;;;;;;3.45;2.10;;;;;;;17.37;87.21;100121.00;5053960;28;20100;-77
2022/05/27 08:31:08;;;;;;;2.10;1.90;;;;;;;17.14;87.78;100138.38;5034800;28;20096;-77
2022/05/27 08:39:08;;;;;;;3.22;2.53;;;;;;;16.78;90.66;100125.94;5012161;28;20041;-77
2022/05/27 08:42:05;;;;;;;5.28;1.80;;;;;;;16.77;91.29;100129.34;5011725;28;20033;-77
2022/05/27 08:44:47;;;;;;;4.80;1.90;;;;;;;16.65;92.23;100136.44;5013156;28;20109;-77
2022/05/27 08:47:42;;;;;;;1.65;1.42;;;;;;;16.65;95.71;100131.47;5015115;28;20034;-76
2022/05/27 08:50:16;;;;;;;2.13;1.48;;;;;;;16.80;93.78;100131.16;5015524;28;20034;-77
2022/05/27 08:52:54;;;;;;;3.55;1.92;;;;;;;16.77;91.76;100143.75;5017113;28;20052;-73
2022/05/27 09:01:11;;;;;;;5.95;3.42;;;;;;;15.97;87.62;100164.38;5016870;28;20056;-73
2022/05/27 09:03:53;;;;;;;1.55;1.17;;;;;;;15.82;87.87;100158.09;4998696;28;20467;-73
2022/05/27 09:06:42;;;;;;;3.67;1.30;;;;;;;15.82;88.31;100169.56;4983391;28;20422;-72
2022/05/27 09:09:17;;;;;;;2.65;1.20;;;;;;;15.70;89.51;100176.59;5013957;28;20413;-74
2022/05/27 09:12:11;;;;;;;5.13;1.92;;;;;;;15.50;90.93;100174.66;4998456;28;20041;-73
2022/05/27 09:14:40;;;;;;;2.30;2.08;;;;;;;15.51;89.39;100170.53;5016166;28;20018;-72
2022/05/27 09:17:07;;;;;;;2.30;1.42;;;;;;;15.49;92.97;100164.47;5014897;28;20132;-77
2022/05/27 09:19:46;;;;;;;3.38;1.90;;;;;;;15.46;90.31;100176.22;4998694;28;20387;-77
2022/05/27 09:22:38;;;;;;;2.42;1.67;;;;;;;15.43;89.45;100157.94;4998262;28;20088;-76
2022/05/27 09:25:22;;;;;;;;;;;;;;;15.43;89.92;100162.91;5016881;28;20025;-78
2022/05/27 09:28:06;;;;;;;2.53;1.40;;;;;;;15.50;89.54;100173.88;5016480;28;19935;-77
2022/05/27 09:30:34;;;;;;;2.28;1.70;;;;;;;15.54;90.88;100174.47;5015391;28;20026;-77
2022/05/27 09:33:07;;;;;;;4.63;1.77;;;;;;;15.53;88.42;100170.81;4998825;28;20030;-77
2022/05/27 09:35:42;;;;;;;1.77;1.52;;;;;;;15.46;89.78;100177.00;4982028;28;20054;-77
2022/05/27 09:38:38;;;;;;;2.10;1.25;;;;;;;15.46;88.90;100176.22;5015654;28;20033;-76
2022/05/27 09:41:14;;;;;;;3.22;1.92;;;;;;;15.40;89.40;100196.28;5015158;28;20033;-78
2022/05/27 09:43:46;;;;;;;4.88;1.73;;;;;;;15.32;88.52;100197.28;5014195;28;20364;-77
2022/05/27 09:46:21;;;;;;;2.22;1.70;;;;;;;15.19;88.73;100179.75;5015500;28;20022;-77
2022/05/27 09:48:47;;;;;;;1.88;1.40;;;;;;;15.22;91.02;100205.34;5014342;28;20390;-78
2022/05/27 09:51:30;;;;;;;2.45;2.00;;;;;;;15.21;90.05;100211.56;5015178;28;20124;-77
2022/05/27 09:54:21;;;;;;;1.75;1.38;;;;;;;15.16;89.25;100213.13;5015301;28;20037;-76
2022/05/27 09:56:58;;;;;;;2.97;1.95;;;;;;;15.25;89.72;100214.97;5015356;28;20018;-77
2022/05/27 10:00:03;;;;;;;3.25;2.10;;;;;;;15.32;91.27;100217.38;5013766;28;20034;-77
2022/05/27 10:02:35;;;;;;;4.85;2.00;;;;;;;15.40;90.85;100222.13;5013608;28;20507;-76
2022/05/27 10:05:05;;;;;;;;;;;;;;;15.44;92.56;100210.41;5015559;28;20471;-77
2022/05/27 10:07:36;;;;;;;2.65;1.60;;;;;;;15.48;92.05;100217.47;5014884;28;19918;-76
2022/05/27 10:10:16;;;;;;;4.28;2.00;;;;;;;15.50;90.65;100220.59;5015507;28;20131;-77
2022/05/27 10:12:43;;;;;;;1.45;1.30;;;;;;;15.57;92.66;100215.69;5015159;28;20029;-77
2022/05/27 10:15:30;;;;;;;4.10;2.92;;;;;;;15.65;92.36;100217.56;5015273;28;20192;-77
2022/05/27 10:18:22;;;;;;;3.33;1.98;;;;;;;15.74;91.07;100202.19;5015164;28;20037;-76
2022/05/27 10:21:10;;;;;;;2.92;1.25;;;;;;;15.84;89.86;100203.50;5013776;28;20034;-77
2022/05/27 10:24:06;;;;;;;4.15;2.85;;;;;;;15.88;90.43;100207.72;5014456;28;20054;-77
2022/05/27 10:26:34;;;;;;;1.40;1.30;;;;;;;15.92;89.03;100216.06;5012867;28;20030;-77
2022/05/27 10:29:15;;;;;;;1.40;1.23;;;;;;;15.85;88.77;100208.75;5013020;28;20383;-76
2022/05/27 10:31:53;;;;;;;2.38;1.33;;;;;;;15.81;89.58;100207.41;5014924;28;20479;-77
2022/05/27 10:34:46;;;;;;;2.10;1.55;;;;;;;15.89;90.65;100212.13;5014864;28;20499;-77
2022/05/27 10:37:45;;;;;;;1.50;1.33;;;;;;;16.05;90.26;100210.63;5013418;28;20083;-77
2022/05/27 10:40:26;;;;;;;3.10;1.45;;;;;;;16.07;90.27;100202.25;5014402;28;20113;-77
2022/05/27 10:43:28;;;;;;;1.65;1.40;;;;;;;16.02;90.20;100211.66;5013068;28;20040;-76
2022/05/27 10:45:55;;;;;;;2.00;1.40;;;;;;;15.81;91.74;100213.16;5014714;28;20037;-77
2022/05/27 10:48:40;;;;;;;1.55;1.45;;;;;;;15.68;91.65;100210.00;5012787;28;20387;-77
2022/05/27 10:51:30;;;;;;;2.00;1.50;;;;;;;15.67;97.10;100200.59;5014142;28;20482;-76
2022/05/27 10:54:36;;;;;;;1.85;1.65;;;;;;;15.80;98.24;100203.75;5014461;28;20045;-76
2022/05/27 11:03:36;;;;;;;2.20;1.38;;;;;;;16.59;91.18;100185.31;4999457;28;20053;-77
2022/05/27 11:06:24;;;;;;;1.30;1.20;;;;;;;16.88;88.60;100172.47;5012942;28;20463;-76
2022/05/27 11:09:18;;;;;;;1.60;1.25;;;;;;;17.09;87.49;100184.44;5013526;28;20033;-77
2022/05/27 11:11:51;;;;;;;1.60;1.50;;;;;;;17.21;86.04;100186.78;5012482;28;20080;-78
2022/05/27 11:17:32;;;;;;;1.92;1.27;;;;;;;17.32;84.58;100182.31;5015182;28;20045;-78
2022/05/27 11:20:35;;;;;;;1.58;1.23;;;;;;;17.34;83.22;100171.03;5014411;28;20128;-77
2022/05/27 11:23:36;;;;;;;1.85;1.15;;;;;;;17.32;80.24;100168.66;5013083;28;20030;-77
2022/05/27 11:26:12;;;;;;;2.42;1.05;;;;;;;17.31;81.47;100167.13;5013774;28;20021;-78
2022/05/27 11:29:16;;;;;;;1.48;1.27;;;;;;;17.16;82.35;100158.00;5013846;28;20209;-76
2022/05/27 11:32:25;;;;;;;1.33;1.23;;;;;;;17.07;81.76;100146.78;5012481;28;20026;-77
2022/05/27 11:35:13;;;;;;;4.57;1.25;;;;;;;16.78;80.55;100168.28;4995502;28;20038;-76
2022/05/27 11:38:24;;;;;;;1.77;0.80;;;;;;;16.61;81.52;100171.22;5013262;28;20032;-77
2022/05/27 11:41:10;;;;;;;1.23;0.98;;;;;;;16.33;80.78;100159.69;4991716;28;20034;-76
2022/05/27 11:44:11;;;;;;;1.17;1.00;;;;;;;16.30;81.50;100159.94;4991545;28;20038;-76
2022/05/27 11:47:06;;;;;;;1.17;1.08;;;;;;;16.23;82.16;100129.63;4991537;28;20109;-77
2022/05/27 11:49:46;;;;;;;0.85;0.82;;;;;;;16.06;82.28;100125.97;4992089;28;20037;-76
2022/05/27 11:52:44;;;;;;;0.93;0.70;;;;;;;16.00;82.50;100130.94;4991947;28;20103;-74
2022/05/27 11:55:28;;;;;;;1.30;0.88;;;;;;;16.08;82.88;100145.59;4987330;28;20034;-75
2022/05/27 11:58:20;;;;;;;1.60;1.00;;;;;;;16.06;83.42;100131.72;5013490;28;20030;-75
2022/05/27 12:01:08;;;;;;;0.77;0.77;;;;;;;16.06;82.11;100137.47;5013130;28;20382;-74
2022/05/27 12:03:50;;;;;;;0.95;0.90;;;;;;;16.11;82.33;100156.81;5013484;28;20030;-74
2022/05/27 12:06:31;;;;;;;1.35;0.93;;;;;;;16.13;81.56;100145.59;5012444;28;20108;-75
2022/05/27 12:09:13;;;;;;;1.42;1.27;;;;;;;15.99;83.34;100163.84;5012451;28;20022;-74
2022/05/27 12:11:45;;;;;;;0.60;0.60;;;;;;;15.95;83.74;100151.81;4995674;28;20044;-75
2022/05/27 12:14:21;;;;;;;2.10;1.33;;;;;;;15.88;84.22;100153.13;5013279;28;20109;-74
2022/05/27 12:16:49;;;;;;;2.08;1.48;;;;;;;15.79;83.84;100155.44;5012597;28;20022;-74
2022/05/27 12:19:18;;;;;;;6.50;1.20;;;;;;;15.85;84.39;100130.41;5013406;28;20029;-74
2022/05/27 12:21:47;;;;;;;2.78;1.45;;;;;;;15.87;83.88;100119.19;5015101;28;20396;-74
2022/05/27 12:24:28;;;;;;;2.65;1.08;;;;;;;15.81;83.86;100147.91;5015999;28;20064;-75
2022/05/27 12:27:10;;;;;;;1.48;1.13;;;;;;;15.90;83.54;100136.16;5015384;28;20049;-74
2022/05/27 12:29:38;;;;;;;1.85;1.25;;;;;;;15.91;85.63;100139.81;4999147;28;20364;-74
2022/05/27 12:32:08;;;;;;;1.45;1.10;;;;;;;16.00;83.53;100133.81;4999093;28;20026;-74
2022/05/27 12:34:37;;;;;;;4.47;1.92;;;;;;;16.04;84.09;100128.59;5018229;28;20030;-74